Time;durP1;ratioP1;P1;durP2;ratioP2;P2;SDS_P1;SDS_P2;PMS_P1;PMS_P2;Temp;Humidity;BMP_temperature;BMP_pressure;BME280_temperature;BME280_humidity;BME280_pressure;Samples;Min_cycle;Max_cycle;Signal;HPM_P1;HPM_P2
2022/12/07 00:01:31;;;;;;;9.35;6.72;;;;;;;3.05;86.80;98093.81;5021642;28;20030;-84
2022/12/07 00:04:05;;;;;;;9.13;6.43;;;;;;;3.04;86.91;98081.03;5021347;28;20041;-84
2022/12/07 00:06:38;;;;;;;10.13;7.22;;;;;;;3.11;87.17;98092.41;5021480;28;20806;-83
2022/12/07 00:09:07;;;;;;;9.68;7.00;;;;;;;3.15;86.88;98096.31;5023898;28;20052;-84
2022/12/07 00:11:33;;;;;;;9.18;6.55;;;;;;;3.11;86.94;98087.22;5024563;28;20373;-84
2022/12/07 00:14:04;;;;;;;8.18;6.68;;;;;;;3.06;86.63;98085.09;5022961;28;20100;-84
2022/12/07 00:16:32;;;;;;;10.63;6.57;;;;;;;3.01;86.75;98082.16;5018892;28;20120;-84
2022/12/07 00:18:58;;;;;;;11.05;6.60;;;;;;;3.12;86.71;98086.25;5023795;28;20056;-84
2022/12/07 00:21:30;;;;;;;12.38;7.93;;;;;;;3.10;86.97;98091.59;5025653;28;20068;-83
2022/12/07 00:23:57;;;;;;;8.65;6.25;;;;;;;3.07;86.60;98081.53;5023350;28;20040;-84
2022/12/07 00:26:38;;;;;;;10.23;7.45;;;;;;;3.05;86.66;98088.63;5018523;28;20038;-84
2022/12/07 00:29:16;;;;;;;9.63;6.88;;;;;;;2.99;86.45;98073.69;5023581;28;20064;-84
2022/12/07 00:31:41;;;;;;;9.57;6.60;;;;;;;3.10;86.88;98086.41;5023013;28;20573;-84
2022/12/07 00:34:15;;;;;;;11.45;7.22;;;;;;;2.97;86.62;98070.44;5005106;28;20034;-84
2022/12/07 00:36:41;;;;;;;11.65;9.00;;;;;;;2.99;87.00;98063.31;5023765;28;20044;-84
2022/12/07 00:39:08;;;;;;;10.38;7.03;;;;;;;3.00;86.82;98074.50;5010021;28;20073;-85
2022/12/07 00:41:34;;;;;;;9.05;6.20;;;;;;;2.95;86.91;98062.03;5024296;28;20033;-84
2022/12/07 00:44:00;;;;;;;10.63;7.43;;;;;;;2.86;86.82;98058.56;5024175;28;20110;-84
2022/12/07 00:46:26;;;;;;;9.75;7.72;;;;;;;3.04;87.00;98081.03;5024793;28;20112;-84
2022/12/07 00:48:53;;;;;;;12.07;7.40;;;;;;;3.05;86.97;98085.22;5023223;28;20034;-84
2022/12/07 00:51:24;;;;;;;12.50;7.60;;;;;;;3.02;87.21;98078.59;5024044;28;20029;-84
2022/12/07 00:53:50;;;;;;;11.02;7.00;;;;;;;2.83;87.26;98058.06;5025378;28;20048;-84
2022/12/07 00:56:25;;;;;;;11.00;6.90;;;;;;;2.91;87.08;98058.09;5024377;28;20562;-84
2022/12/07 00:58:56;;;;;;;10.10;7.13;;;;;;;2.99;87.34;98075.47;5023828;28;20038;-84
2022/12/07 01:01:23;;;;;;;10.55;7.38;;;;;;;2.92;87.35;98057.13;5024458;28;20424;-84
2022/12/07 01:03:49;;;;;;;11.07;7.13;;;;;;;3.00;87.08;98079.69;5024131;28;20030;-84
2022/12/07 01:06:17;;;;;;;10.02;7.50;;;;;;;2.93;87.30;98079.47;5026369;28;20034;-84
2022/12/07 01:08:43;;;;;;;10.80;7.45;;;;;;;2.97;87.35;98080.00;5023993;28;20037;-84
2022/12/07 01:11:14;;;;;;;9.38;7.05;;;;;;;2.78;87.77;98061.09;5024959;28;20044;-84
2022/12/07 01:13:41;;;;;;;11.13;7.85;;;;;;;2.95;87.43;98080.97;5028609;28;20112;-84
2022/12/07 01:16:09;;;;;;;10.65;7.20;;;;;;;2.99;87.51;98072.88;5023405;28;20033;-85
2022/12/07 01:18:36;;;;;;;9.18;6.47;;;;;;;2.92;87.05;98068.31;5024584;28;20029;-84
2022/12/07 01:21:27;;;;;;;11.27;7.38;;;;;;;2.93;87.10;98071.72;5024081;28;20041;-84
2022/12/07 01:23:53;;;;;;;9.48;6.75;;;;;;;3.00;87.31;98074.50;5021319;28;20090;-84
2022/12/07 01:26:24;;;;;;;10.98;7.40;;;;;;;2.99;87.11;98072.88;5022539;28;20026;-84
2022/12/07 01:28:51;;;;;;;10.52;7.82;;;;;;;2.91;86.84;98077.06;5022710;28;20041;-84
2022/12/07 01:31:23;;;;;;;10.38;7.85;;;;;;;3.01;87.10;98076.16;5023096;28;20091;-84
2022/12/07 01:33:53;;;;;;;10.15;7.75;;;;;;;2.93;87.12;98080.28;5023294;28;20033;-83
2022/12/07 01:36:26;;;;;;;9.73;6.93;;;;;;;2.93;86.96;98067.34;5020795;28;21601;-84
2022/12/07 01:39:00;;;;;;;11.07;7.95;;;;;;;3.00;87.16;98082.28;5025102;28;20033;-84
2022/12/07 01:41:29;;;;;;;10.13;7.07;;;;;;;2.90;86.93;98085.78;5020713;28;20048;-85
2022/12/07 01:44:25;;;;;;;14.40;9.13;;;;;;;2.94;86.77;98086.31;5021796;28;20038;-84
2022/12/07 01:46:56;;;;;;;11.93;8.38;;;;;;;2.83;87.01;98069.22;5022718;28;20619;-84
2022/12/07 01:49:43;;;;;;;11.73;7.60;;;;;;;2.94;87.02;98071.59;5005026;28;20037;-84
2022/12/07 01:52:33;;;;;;;12.98;8.27;;;;;;;2.95;86.90;98073.19;5022986;28;20044;-84
2022/12/07 01:55:08;;;;;;;10.43;7.20;;;;;;;2.92;86.83;98072.69;5021141;28;20028;-84
2022/12/07 01:57:38;;;;;;;10.23;6.78;;;;;;;2.97;86.83;98091.19;5024966;28;20034;-84
2022/12/07 02:00:07;;;;;;;10.55;7.78;;;;;;;2.87;87.08;98077.50;5023915;28;20088;-84
2022/12/07 02:02:38;;;;;;;14.98;10.27;;;;;;;2.85;87.38;98076.84;5023097;28;20528;-84
2022/12/07 02:05:06;;;;;;;11.98;7.88;;;;;;;2.89;87.50;98079.00;5024723;28;20044;-84
2022/12/07 02:07:36;;;;;;;14.50;9.63;;;;;;;2.88;87.80;98077.38;5023929;28;20124;-84
2022/12/07 02:10:22;;;;;;;12.68;8.13;;;;;;;2.92;87.26;98083.84;5023614;28;20124;-84
2022/12/07 02:13:13;;;;;;;14.50;9.05;;;;;;;2.83;87.51;98079.59;5023687;28;20033;-84
2022/12/07 02:16:08;;;;;;;13.07;9.02;;;;;;;2.74;87.54;98054.59;5021970;28;20420;-84
2022/12/07 02:18:37;;;;;;;13.43;8.02;;;;;;;2.85;87.42;98069.88;5006721;28;20030;-84
2022/12/07 02:21:13;;;;;;;12.18;7.85;;;;;;;2.84;87.71;98065.66;5021810;28;20043;-84
2022/12/07 02:23:52;;;;;;;13.98;9.27;;;;;;;2.81;87.58;98073.72;5022708;28;20034;-84
2022/12/07 02:27:10;;;;;;;13.23;8.27;;;;;;;2.81;87.40;98071.13;5020888;28;20116;-84
2022/12/07 02:30:02;;;;;;;12.65;7.93;;;;;;;2.88;87.28;98061.81;5021700;28;20458;-84
2022/12/07 02:32:46;;;;;;;16.13;9.60;;;;;;;2.74;87.50;98057.16;5021575;28;20038;-84
2022/12/07 02:35:21;;;;;;;13.77;9.07;;;;;;;2.71;87.30;98057.50;5018397;28;20112;-84
2022/12/07 02:38:08;;;;;;;13.82;8.55;;;;;;;2.63;87.66;98040.09;5021409;28;20044;-84
2022/12/07 02:40:49;;;;;;;12.05;7.60;;;;;;;2.63;87.59;98028.94;5021414;28;20034;-84
2022/12/07 02:43:24;;;;;;;12.00;7.90;;;;;;;2.75;87.65;98040.66;5020108;28;20033;-84
2022/12/07 02:45:56;;;;;;;13.05;8.85;;;;;;;2.62;87.37;98022.94;5022877;28;20033;-84
2022/12/07 02:48:24;;;;;;;14.90;8.75;;;;;;;2.67;87.74;98012.94;5006113;28;20495;-84
2022/12/07 02:50:53;;;;;;;13.18;8.20;;;;;;;2.80;87.73;98022.91;5010355;28;20592;-84
2022/12/07 02:53:40;;;;;;;13.57;8.38;;;;;;;2.78;86.94;98019.66;5023531;28;20164;-84
2022/12/07 02:56:37;;;;;;;14.18;8.00;;;;;;;2.88;87.16;98025.56;5021949;28;20079;-84
2022/12/07 02:59:27;;;;;;;15.27;8.52;;;;;;;2.93;86.78;98025.06;5022604;28;20038;-84
2022/12/07 03:02:38;;;;;;;13.00;7.95;;;;;;;2.85;85.88;98033.63;5023758;28;20534;-84
2022/12/07 03:05:25;;;;;;;13.82;7.93;;;;;;;2.71;85.78;98012.66;5015219;28;20049;-84
2022/12/07 03:08:05;;;;;;;13.73;8.13;;;;;;;2.86;85.52;98022.28;5022526;28;20041;-84
2022/12/07 03:11:09;;;;;;;16.83;9.60;;;;;;;2.80;85.86;98025.50;5019500;28;20038;-84
2022/12/07 03:13:54;;;;;;;14.73;8.35;;;;;;;2.80;85.73;98022.91;5021984;28;20037;-85
2022/12/07 03:16:27;;;;;;;11.75;7.82;;;;;;;2.73;85.59;98027.06;5003853;28;20037;-84
2022/12/07 03:18:59;;;;;;;13.82;8.48;;;;;;;2.73;85.44;98014.13;5020722;28;20034;-84
2022/12/07 03:21:31;;;;;;;18.45;9.35;;;;;;;2.81;85.65;98029.69;5024372;28;20401;-84
2022/12/07 03:24:02;;;;;;;13.23;8.18;;;;;;;2.82;84.85;98033.94;5020794;28;20390;-84
2022/12/07 03:26:39;;;;;;;16.77;9.32;;;;;;;2.87;84.86;98021.31;5024135;28;20160;-84
2022/12/07 03:29:19;;;;;;;15.13;8.80;;;;;;;2.82;84.39;98007.19;5021309;28;20037;-84
2022/12/07 03:31:55;;;;;;;14.32;8.38;;;;;;;2.90;85.24;98018.44;5021594;28;20409;-84
2022/12/07 03:34:23;;;;;;;15.10;8.63;;;;;;;2.91;85.36;98009.69;5001183;28;20083;-84
2022/12/07 03:37:04;;;;;;;12.43;8.35;;;;;;;2.84;85.11;97993.16;5021457;28;20033;-84
2022/12/07 03:40:01;;;;;;;16.38;8.77;;;;;;;2.79;84.29;98005.72;5006824;28;20117;-84
2022/12/07 03:42:28;;;;;;;15.68;8.77;;;;;;;2.63;84.76;98023.75;5023101;28;20061;-84
2022/12/07 03:44:54;;;;;;;18.20;8.60;;;;;;;2.50;85.40;98023.31;5021912;28;20042;-84
2022/12/07 03:47:34;;;;;;;17.13;9.32;;;;;;;2.47;85.69;98015.88;5020610;28;20091;-84
2022/12/07 03:50:16;;;;;;;16.38;9.80;;;;;;;2.48;85.42;98018.31;5021773;28;20539;-84
2022/12/07 03:52:55;;;;;;;14.38;9.05;;;;;;;2.58;85.32;98018.19;5021874;28;20396;-84
2022/12/07 03:55:35;;;;;;;13.93;9.10;;;;;;;2.62;85.16;98024.72;5026012;28;20042;-84
2022/12/07 03:58:10;;;;;;;19.63;9.87;;;;;;;2.48;85.71;98022.69;5025470;28;20060;-84
2022/12/07 04:00:37;;;;;;;16.15;8.50;;;;;;;2.29;85.71;98003.78;5023952;28;20029;-84
2022/12/07 04:03:03;;;;;;;16.95;8.95;;;;;;;2.48;86.48;98022.69;5027564;28;20405;-84
2022/12/07 04:05:29;;;;;;;15.32;8.38;;;;;;;2.40;86.12;98019.06;5024030;28;20041;-84
2022/12/07 04:07:54;;;;;;;14.10;8.35;;;;;;;2.42;86.52;98004.19;5028511;28;20044;-84
2022/12/07 04:10:20;;;;;;;13.85;8.48;;;;;;;2.55;85.47;98005.56;5024296;28;20037;-84
2022/12/07 04:12:45;;;;;;;15.23;8.77;;;;;;;2.57;85.23;98007.03;5025195;28;20037;-84
2022/12/07 04:15:11;;;;;;;17.58;9.77;;;;;;;2.57;85.23;98011.41;5006704;28;20029;-85
2022/12/07 04:17:37;;;;;;;16.08;9.65;;;;;;;2.45;85.40;97994.50;5023898;28;20030;-84
2022/12/07 04:20:05;;;;;;;17.80;9.90;;;;;;;2.47;85.36;98002.94;5023733;28;20136;-84
2022/12/07 04:22:30;;;;;;;16.98;10.10;;;;;;;2.54;85.33;98014.31;5027049;28;20538;-84
2022/12/07 04:24:56;;;;;;;18.70;10.68;;;;;;;2.51;85.32;98015.41;5024689;28;20113;-84
2022/12/07 04:27:21;;;;;;;16.70;9.57;;;;;;;2.52;85.24;98011.88;5021902;28;20045;-84
2022/12/07 04:29:47;;;;;;;16.27;8.73;;;;;;;2.50;85.32;98007.78;5024820;28;20493;-84
2022/12/07 04:32:12;;;;;;;16.15;8.52;;;;;;;2.48;85.60;98007.94;5025648;28;20041;-84
2022/12/07 04:34:38;;;;;;;17.90;9.98;;;;;;;2.49;85.33;98012.16;5024049;28;20045;-84
2022/12/07 04:37:03;;;;;;;18.33;9.80;;;;;;;2.49;85.82;98003.59;5024444;28;20213;-84
2022/12/07 04:39:32;;;;;;;14.93;8.82;;;;;;;2.46;85.88;98003.88;5025111;28;20041;-84
2022/12/07 04:41:59;;;;;;;18.88;10.27;;;;;;;2.47;85.20;98001.16;5025455;28;20385;-84
2022/12/07 04:44:27;;;;;;;18.05;9.50;;;;;;;2.40;84.92;97984.59;5024697;28;20045;-84
2022/12/07 04:46:54;;;;;;;14.30;8.32;;;;;;;2.48;85.08;98001.97;5011368;28;20033;-84
2022/12/07 04:49:20;;;;;;;17.00;9.32;;;;;;;2.45;85.25;98002.25;5027621;28;20049;-84
2022/12/07 04:51:46;;;;;;;17.35;10.02;;;;;;;2.29;84.85;97993.41;5008875;28;20109;-84
2022/12/07 04:54:15;;;;;;;17.52;10.60;;;;;;;2.28;85.21;98007.31;5023676;28;20343;-84
2022/12/07 04:56:41;;;;;;;22.42;11.02;;;;;;;2.33;85.12;98009.44;5027366;28;20051;-85
2022/12/07 04:59:07;;;;;;;17.00;10.07;;;;;;;2.28;85.53;97986.63;5023304;28;20041;-84
2022/12/07 05:01:33;;;;;;;17.85;10.45;;;;;;;2.36;85.22;97999.63;5024666;28;20060;-84
2022/12/07 05:04:00;;;;;;;19.33;10.15;;;;;;;2.49;84.90;98009.56;5008392;28;20069;-84
2022/12/07 05:06:26;;;;;;;19.65;9.70;;;;;;;2.44;84.92;97990.28;5022499;28;20037;-84
2022/12/07 05:08:51;;;;;;;18.65;9.55;;;;;;;2.52;84.95;98009.28;5024232;28;20456;-84
2022/12/07 05:14:04;;;;;;;19.10;10.52;;;;;;;2.61;84.59;98018.72;5021196;28;20563;-84
2022/12/07 05:16:30;;;;;;;15.80;8.73;;;;;;;2.53;84.28;98004.91;5023304;28;20832;-84
2022/12/07 05:18:56;;;;;;;20.88;10.95;;;;;;;2.50;84.44;98002.63;5008936;28;20029;-84
2022/12/07 05:21:21;;;;;;;17.67;9.75;;;;;;;2.58;84.11;98007.84;5022702;28;20432;-85
2022/12/07 05:23:47;;;;;;;16.52;9.30;;;;;;;2.64;84.03;98012.44;5007432;28;20037;-84
2022/12/07 05:26:12;;;;;;;18.90;10.02;;;;;;;2.57;83.72;97996.69;5021621;28;20037;-85
2022/12/07 05:28:38;;;;;;;21.40;10.77;;;;;;;2.82;83.61;98009.78;5025095;28;20125;-84
2022/12/07 05:31:04;;;;;;;19.95;10.70;;;;;;;2.78;82.99;98022.25;5024537;28;20050;-84
2022/12/07 05:33:29;;;;;;;23.20;11.27;;;;;;;2.72;83.12;98009.91;5023744;28;20074;-84
2022/12/07 05:35:55;;;;;;;19.13;10.63;;;;;;;2.80;83.16;98012.53;5018189;28;20029;-84
2022/12/07 05:38:20;;;;;;;21.52;10.85;;;;;;;2.70;82.47;97996.31;5026113;28;20459;-84
2022/12/07 05:40:46;;;;;;;17.25;9.30;;;;;;;2.82;82.80;98004.59;5022899;28;20033;-84
2022/12/07 05:43:11;;;;;;;19.10;9.52;;;;;;;2.75;83.47;98004.41;5010205;28;20538;-85
2022/12/07 05:45:37;;;;;;;22.35;10.95;;;;;;;2.68;83.49;97996.44;5023434;28;20037;-85
2022/12/07 05:48:03;;;;;;;18.23;10.25;;;;;;;2.58;83.11;97987.97;5025269;28;20118;-84
2022/12/07 05:50:28;;;;;;;20.17;10.73;;;;;;;2.60;83.48;98001.56;5023048;28;20042;-84
2022/12/07 05:52:54;;;;;;;20.52;10.18;;;;;;;2.52;83.42;97993.75;5008159;28;20061;-84
2022/12/07 05:55:19;;;;;;;21.75;11.82;;;;;;;2.60;83.33;98003.34;5023678;28;20051;-84
2022/12/07 05:59:22;;;;;;;23.75;12.80;;;;;;;2.62;83.31;98002.22;5004167;28;20033;-84
2022/12/07 06:00:32;;;;;;;19.98;10.98;;;;;;;2.60;82.99;98005.94;5022146;28;20050;-84
2022/12/07 06:02:57;;;;;;;20.75;11.18;;;;;;;2.58;82.86;98002.66;5024038;28;20388;-84
2022/12/07 06:05:23;;;;;;;16.67;9.43;;;;;;;2.47;83.27;97998.56;5022446;28;20038;-84
2022/12/07 06:07:49;;;;;;;20.52;10.75;;;;;;;2.48;83.34;97999.38;5023825;28;20036;-84
2022/12/07 06:10:14;;;;;;;19.63;10.05;;;;;;;2.49;83.20;97998.41;5019552;28;20353;-84
2022/12/07 06:12:42;;;;;;;17.95;9.98;;;;;;;2.48;83.04;98002.78;5021322;28;20296;-85
2022/12/07 06:15:12;;;;;;;19.88;9.88;;;;;;;2.48;83.37;98007.16;5025007;28;20042;-84
2022/12/07 06:17:39;;;;;;;21.67;10.73;;;;;;;2.46;83.62;97998.69;5018857;28;20065;-84
2022/12/07 06:20:05;;;;;;;18.85;9.70;;;;;;;2.39;83.15;97990.72;5022158;28;20037;-84
2022/12/07 06:22:31;;;;;;;20.52;10.43;;;;;;;2.47;83.76;98006.34;5020573;28;20473;-84
2022/12/07 06:24:57;;;;;;;21.50;11.85;;;;;;;2.45;83.45;98008.25;5018633;28;20026;-84
2022/12/07 06:27:22;;;;;;;14.27;8.05;;;;;;;2.41;83.23;98004.34;5025260;28;20044;-84
2022/12/07 06:29:48;;;;;;;19.65;10.10;;;;;;;2.49;84.22;97999.22;5021247;28;20049;-84
2022/12/07 06:32:13;;;;;;;16.83;8.57;;;;;;;2.38;84.12;97989.09;5022965;28;20127;-84
2022/12/07 06:34:39;;;;;;;16.67;8.68;;;;;;;2.50;83.54;97994.84;5018807;28;20112;-84
2022/12/07 06:37:04;;;;;;;19.73;10.95;;;;;;;2.44;83.56;97996.25;5021700;28;20029;-84
2022/12/07 06:39:30;;;;;;;17.88;10.18;;;;;;;2.47;83.31;98000.34;5023225;28;20038;-84
2022/12/07 06:41:56;;;;;;;20.10;11.05;;;;;;;2.51;83.52;97996.47;5024454;28;20113;-84
2022/12/07 06:44:23;;;;;;;19.27;10.05;;;;;;;2.53;83.86;97997.16;5022445;28;20139;-84
2022/12/07 06:46:50;;;;;;;16.40;9.38;;;;;;;2.54;83.37;98001.38;5022113;28;20065;-84
2022/12/07 06:49:16;;;;;;;20.13;10.32;;;;;;;2.53;82.98;97991.97;5021019;28;20070;-84
2022/12/07 06:51:42;;;;;;;19.10;10.20;;;;;;;2.51;83.32;97991.28;5023250;28;20167;-84
2022/12/07 06:54:13;;;;;;;14.52;8.63;;;;;;;2.60;82.97;97993.00;5023036;28;20076;-84
2022/12/07 06:56:39;;;;;;;19.13;10.32;;;;;;;2.64;82.49;98013.25;5023941;28;20045;-85
2022/12/07 06:59:06;;;;;;;12.75;7.88;;;;;;;2.54;82.94;98007.34;5015149;28;20114;-84
2022/12/07 07:01:33;;;;;;;19.92;10.32;;;;;;;2.63;83.66;98006.44;5008120;28;20041;-85
2022/12/07 07:03:59;;;;;;;21.80;10.10;;;;;;;2.63;83.45;98005.63;5022064;28;20484;-85
2022/12/07 07:06:40;;;;;;;19.00;9.82;;;;;;;2.59;83.52;97997.34;5021677;28;20061;-85
2022/12/07 07:09:38;;;;;;;20.63;10.05;;;;;;;2.76;83.33;98021.59;5025773;28;20033;-86
2022/12/07 07:13:03;;;;;;;22.23;11.15;;;;;;;2.76;82.78;98019.00;4977856;28;20041;-85
2022/12/07 07:15:50;;;;;;;10.57;6.43;;;;;;;2.62;82.39;97993.63;5005867;28;20536;-85
2022/12/07 07:18:15;;;;;;;20.40;10.65;;;;;;;2.73;82.29;98011.53;5023236;28;20029;-86
2022/12/07 07:20:41;;;;;;;20.85;11.80;;;;;;;2.69;82.06;98010.19;5019200;28;20064;-86
2022/12/07 07:23:07;;;;;;;17.10;9.55;;;;;;;2.70;81.89;98014.44;5022962;28;20040;-86
2022/12/07 07:25:33;;;;;;;16.08;7.95;;;;;;;2.80;82.33;98017.72;5021551;28;20057;-86
2022/12/07 07:27:59;;;;;;;20.42;10.35;;;;;;;2.64;82.13;98002.91;5025962;28;20033;-86
2022/12/07 07:30:25;;;;;;;17.80;9.60;;;;;;;2.79;82.28;98020.47;5024212;28;20053;-86
2022/12/07 07:32:50;;;;;;;16.38;8.88;;;;;;;2.68;82.22;98005.97;5027434;28;20045;-86
2022/12/07 07:35:16;;;;;;;15.95;9.50;;;;;;;2.70;82.58;97996.31;5021701;28;20127;-86
2022/12/07 07:37:48;;;;;;;21.15;11.35;;;;;;;2.87;82.40;98015.31;5028159;28;20038;-86
2022/12/07 07:40:13;;;;;;;17.70;9.52;;;;;;;2.78;82.30;98004.13;5026371;28;20033;-86
2022/12/07 07:42:39;;;;;;;18.70;11.10;;;;;;;2.75;82.05;98019.94;5026252;28;20038;-86
2022/12/07 07:45:05;;;;;;;16.67;9.55;;;;;;;2.74;82.86;98013.16;5025006;28;20112;-86
2022/12/07 07:47:30;;;;;;;18.42;11.00;;;;;;;2.86;82.81;98017.09;5032127;28;20519;-86
2022/12/07 07:49:57;;;;;;;20.98;10.52;;;;;;;2.73;82.53;98003.75;5011344;28;20037;-86
2022/12/07 07:52:22;;;;;;;17.58;10.25;;;;;;;2.81;82.61;98006.38;5028690;28;20044;-86
2022/12/07 07:54:48;;;;;;;19.25;11.23;;;;;;;2.88;82.96;98009.22;5032959;28;20481;-86
2022/12/07 07:57:13;;;;;;;17.52;9.65;;;;;;;2.89;82.82;98016.81;5027911;28;20038;-86
2022/12/07 07:59:39;;;;;;;21.30;11.20;;;;;;;2.88;83.06;98016.97;5027691;28;20084;-86
2022/12/07 08:02:05;;;;;;;20.50;10.02;;;;;;;2.99;82.97;98027.06;4990983;28;20053;-86
2022/12/07 08:04:30;;;;;;;18.70;10.55;;;;;;;3.04;83.04;98027.41;5025150;28;20600;-86
2022/12/07 08:06:57;;;;;;;19.65;9.38;;;;;;;3.00;83.14;98022.69;5028951;28;20136;-85
2022/12/07 08:09:22;;;;;;;21.08;11.10;;;;;;;3.04;83.03;98019.63;5009314;28;20030;-86
2022/12/07 08:11:48;;;;;;;22.38;10.73;;;;;;;2.97;83.34;98023.00;5025511;28;20060;-87
2022/12/07 08:14:13;;;;;;;20.45;11.48;;;;;;;2.98;83.70;98020.25;5025707;28;20042;-86
2022/12/07 08:16:39;;;;;;;21.08;12.25;;;;;;;2.88;83.95;98012.59;5028839;28;20059;-86
2022/12/07 08:19:05;;;;;;;23.45;12.93;;;;;;;2.98;84.17;98024.63;5023603;28;20033;-85
2022/12/07 08:21:30;;;;;;;20.67;10.20;;;;;;;3.00;84.50;98013.16;5024998;28;20427;-86
2022/12/07 08:23:57;;;;;;;20.00;10.40;;;;;;;3.09;84.49;98025.19;5023086;28;20029;-86
2022/12/07 08:26:23;;;;;;;21.90;10.13;;;;;;;2.99;84.34;98005.53;5026106;28;20048;-85
2022/12/07 08:28:48;;;;;;;19.60;10.23;;;;;;;2.99;83.67;98002.94;5021153;28;20034;-86
2022/12/07 08:31:18;;;;;;;19.88;10.98;;;;;;;3.13;83.18;98038.66;5026619;28;20041;-87
2022/12/07 08:33:48;;;;;;;21.53;10.97;;;;;;;3.08;83.54;98030.53;5010661;28;20034;-87
2022/12/07 08:36:14;;;;;;;19.92;10.75;;;;;;;3.08;83.84;98023.56;5024280;28;20025;-86
2022/12/07 08:38:41;;;;;;;19.55;11.45;;;;;;;2.90;83.77;98008.06;5019081;28;20048;-84
2022/12/07 08:41:07;;;;;;;17.92;10.68;;;;;;;2.94;83.93;98014.59;4998168;28;20069;-85
2022/12/07 08:43:34;;;;;;;18.17;9.88;;;;;;;3.06;84.05;98045.38;5018667;28;20524;-86
2022/12/07 08:46:08;;;;;;;20.10;11.18;;;;;;;2.99;84.12;98039.19;5001739;28;20155;-85
2022/12/07 08:48:40;;;;;;;18.73;9.70;;;;;;;2.91;84.24;98027.81;5020902;28;20065;-85
2022/12/07 08:51:06;;;;;;;16.05;9.30;;;;;;;2.99;84.10;98034.81;5020248;28;20076;-85
2022/12/07 08:53:35;;;;;;;18.88;10.63;;;;;;;2.88;84.38;98025.56;5024279;28;20078;-86
2022/12/07 08:56:00;;;;;;;17.20;9.57;;;;;;;3.06;84.83;98038.47;5010641;28;20120;-85
2022/12/07 08:58:26;;;;;;;14.77;8.20;;;;;;;2.99;84.86;98021.06;5022462;28;20049;-85
2022/12/07 09:00:54;;;;;;;16.70;9.48;;;;;;;3.05;84.35;98041.19;5022791;28;20061;-85
2022/12/07 09:03:20;;;;;;;17.58;9.90;;;;;;;2.95;85.03;98023.16;5020224;28;20611;-86
2022/12/07 09:05:45;;;;;;;16.80;9.20;;;;;;;3.06;84.81;98037.63;5020210;28;20037;-86
2022/12/07 09:08:11;;;;;;;9.20;5.32;;;;;;;2.94;84.40;98030.13;5021403;28;20064;-85
2022/12/07 09:10:37;;;;;;;18.88;10.90;;;;;;;3.05;84.59;98036.81;5019764;28;20037;-85
2022/12/07 09:13:02;;;;;;;20.20;11.30;;;;;;;3.08;84.40;98046.06;5020399;28;20036;-86
2022/12/07 09:15:30;;;;;;;16.70;8.73;;;;;;;3.08;84.18;98046.88;5019359;28;20043;-86
2022/12/07 09:17:55;;;;;;;11.70;7.50;;;;;;;3.05;84.40;98061.91;5009534;28;20065;-86
2022/12/07 09:20:21;;;;;;;14.38;8.05;;;;;;;3.05;84.98;98042.00;5009304;28;20080;-85
2022/12/07 09:22:47;;;;;;;19.05;10.60;;;;;;;3.04;84.93;98047.34;5002242;28;20029;-86
2022/12/07 09:25:12;;;;;;;15.43;8.18;;;;;;;3.10;85.03;98046.72;5006900;28;21559;-84
2022/12/07 09:27:38;;;;;;;16.27;9.25;;;;;;;3.07;84.87;98053.03;5023999;28;20033;-85
2022/12/07 09:30:05;;;;;;;18.38;8.27;;;;;;;3.15;84.97;98036.72;5003619;28;20076;-85
2022/12/07 09:32:31;;;;;;;15.20;8.38;;;;;;;3.15;84.35;98047.88;5016139;28;20068;-86
2022/12/07 09:34:56;;;;;;;17.65;8.80;;;;;;;3.12;85.09;98043.03;5013388;28;20041;-85
2022/12/07 09:37:22;;;;;;;17.38;9.88;;;;;;;3.13;84.90;98051.63;5003183;28;20044;-85
2022/12/07 09:39:48;;;;;;;19.25;10.85;;;;;;;3.16;84.78;98051.28;5020678;28;20037;-86
2022/12/07 09:42:36;;;;;;;14.70;7.35;;;;;;;3.13;85.31;98044.66;5022172;28;20037;-85
2022/12/07 09:45:06;;;;;;;16.48;8.65;;;;;;;3.06;85.00;98028.09;5022617;28;20127;-85
2022/12/07 09:47:36;;;;;;;18.10;10.15;;;;;;;3.09;85.16;98043.31;5019216;28;20041;-85
2022/12/07 09:50:21;;;;;;;16.53;9.30;;;;;;;3.19;85.29;98038.84;5022007;28;20053;-86
2022/12/07 09:52:48;;;;;;;18.60;9.43;;;;;;;3.18;85.37;98039.00;5020063;28;20116;-85
2022/12/07 09:55:22;;;;;;;19.15;11.07;;;;;;;3.17;84.85;98038.16;5019531;28;20037;-86
2022/12/07 09:57:48;;;;;;;18.30;10.13;;;;;;;3.25;85.42;98034.03;5015716;28;20049;-85
2022/12/07 10:00:21;;;;;;;15.52;8.18;;;;;;;3.34;85.81;98033.88;5020412;28;20029;-85
2022/12/07 10:02:57;;;;;;;20.85;10.88;;;;;;;3.37;85.45;98036.19;5006113;28;20045;-85
2022/12/07 10:05:49;;;;;;;16.60;9.38;;;;;;;3.34;85.25;98028.69;5020505;28;20164;-85
2022/12/07 10:08:17;;;;;;;17.67;9.55;;;;;;;3.35;85.01;98038.09;5022691;28;20029;-85
2022/12/07 10:10:45;;;;;;;16.15;8.27;;;;;;;3.33;84.69;98041.81;5019953;28;20040;-85
2022/12/07 10:13:20;;;;;;;15.52;9.82;;;;;;;3.27;85.06;98027.69;5022454;28;20496;-85
2022/12/07 10:15:57;;;;;;;13.75;7.18;;;;;;;3.32;85.04;98030.66;5022254;28;20029;-85
2022/12/07 10:18:44;;;;;;;19.25;10.23;;;;;;;3.39;85.01;98023.06;5017155;28;20034;-85
2022/12/07 10:21:20;;;;;;;18.40;9.15;;;;;;;3.46;84.75;98021.47;4999667;28;20126;-85
2022/12/07 10:24:17;;;;;;;15.68;9.85;;;;;;;3.39;84.92;98023.88;5020498;28;20111;-84
2022/12/07 10:26:46;;;;;;;15.13;7.38;;;;;;;3.41;84.88;98013.34;5017150;28;20061;-85
2022/12/07 10:29:11;;;;;;;16.40;9.43;;;;;;;3.46;84.91;98018.88;5018311;28;20050;-84
2022/12/07 10:31:39;;;;;;;14.25;8.63;;;;;;;3.43;85.38;98014.00;5019443;28;20527;-85
2022/12/07 10:34:26;;;;;;;14.55;8.80;;;;;;;3.45;84.92;98010.28;5018285;28;20040;-85
2022/12/07 10:37:01;;;;;;;17.88;9.90;;;;;;;3.44;85.16;98005.25;5006566;28;20029;-85
2022/12/07 10:39:27;;;;;;;16.10;10.15;;;;;;;3.42;84.98;98004.59;5006910;28;20159;-85
2022/12/07 10:41:58;;;;;;;15.85;8.38;;;;;;;3.42;85.50;97997.63;5002938;28;20053;-86
2022/12/07 10:44:33;;;;;;;16.67;9.15;;;;;;;3.55;85.22;98011.94;5016030;28;20041;-85
2022/12/07 10:47:22;;;;;;;20.13;10.65;;;;;;;3.58;84.83;98009.03;5017863;28;20041;-86
2022/12/07 10:50:41;;;;;;;16.40;10.07;;;;;;;3.64;85.29;98010.97;5017294;28;20168;-85
2022/12/07 10:53:34;;;;;;;16.02;9.63;;;;;;;3.58;84.88;98007.25;5014660;28;20829;-86
2022/12/07 10:56:24;;;;;;;14.85;9.07;;;;;;;3.58;84.46;98016.81;5019017;28;20026;-85
2022/12/07 10:59:14;;;;;;;18.50;10.40;;;;;;;3.55;85.14;98004.16;5019838;28;20041;-86
2022/12/07 11:01:57;;;;;;;13.57;8.18;;;;;;;3.66;84.80;98006.47;5002881;28;20381;-84
2022/12/07 11:04:55;;;;;;;15.75;9.25;;;;;;;3.48;85.04;97997.00;5021736;28;20100;-86
2022/12/07 11:07:48;;;;;;;16.15;9.68;;;;;;;3.55;85.35;97994.59;5018468;28;20076;-85
2022/12/07 11:10:22;;;;;;;16.45;9.05;;;;;;;3.67;85.48;97995.13;5014376;28;20223;-85
2022/12/07 11:13:28;;;;;;;18.00;9.65;;;;;;;3.77;85.16;97985.41;5022538;28;20030;-85
2022/12/07 11:16:19;;;;;;;15.60;8.13;;;;;;;3.70;84.60;97990.41;5021386;28;20041;-87
2022/12/07 11:19:06;;;;;;;17.98;10.48;;;;;;;3.86;84.19;97994.84;5023273;28;20091;-87
2022/12/07 11:21:57;;;;;;;16.02;9.18;;;;;;;3.85;84.12;97982.03;5022420;28;20037;-86
2022/12/07 11:25:13;;;;;;;13.32;8.48;;;;;;;3.73;83.52;97974.53;5020587;28;20042;-85
2022/12/07 11:28:19;;;;;;;15.15;9.05;;;;;;;3.79;84.08;97986.06;5001033;28;20081;-87
2022/12/07 11:31:25;;;;;;;17.63;9.95;;;;;;;3.77;84.20;97972.44;5019579;28;20124;-87
2022/12/07 11:34:00;;;;;;;12.60;8.25;;;;;;;3.73;83.74;97971.16;5005695;28;20041;-86
2022/12/07 11:36:48;;;;;;;14.32;8.10;;;;;;;3.85;84.00;97967.28;5022554;28;20044;-84
2022/12/07 11:39:44;;;;;;;13.85;8.32;;;;;;;3.74;83.64;97952.00;5024776;28;20621;-85
2022/12/07 11:42:41;;;;;;;13.07;8.18;;;;;;;3.90;83.39;97964.16;5016414;28;20049;-86
2022/12/07 11:45:23;;;;;;;14.45;7.78;;;;;;;3.91;82.80;97971.00;5018754;28;20034;-86
2022/12/07 11:48:14;;;;;;;15.18;8.80;;;;;;;3.83;83.49;97964.00;5022195;28;20480;-86
2022/12/07 11:50:47;;;;;;;14.65;8.63;;;;;;;3.86;83.30;97955.09;5024954;28;20033;-87
2022/12/07 11:53:28;;;;;;;15.85;9.25;;;;;;;3.79;83.24;97952.34;5025830;28;20477;-86
2022/12/07 11:56:15;;;;;;;13.83;8.57;;;;;;;3.81;83.44;97965.16;5021418;28;20026;-86
2022/12/07 11:58:49;;;;;;;16.15;8.63;;;;;;;3.88;83.37;97955.75;5013516;28;20034;-85
2022/12/07 12:01:56;;;;;;;13.27;8.05;;;;;;;3.91;83.26;97964.03;5020041;28;20496;-86